createdAt,value
2022-09-12T00:00:52.890Z,17.53
2022-09-12T00:03:19.958Z,17.73
2022-09-12T00:05:47.976Z,15.70
2022-09-12T00:08:15.280Z,15.20
2022-09-12T00:10:44.127Z,14.50
2022-09-12T00:13:11.794Z,13.87
2022-09-12T00:15:40.217Z,14.13
2022-09-12T00:18:09.459Z,13.20
2022-09-12T00:20:36.347Z,13.03
2022-09-12T00:23:03.384Z,13.43
2022-09-12T00:25:31.259Z,13.37
2022-09-12T00:27:58.259Z,13.43
2022-09-12T00:30:25.306Z,13.93
2022-09-12T00:32:54.644Z,13.47
2022-09-12T00:35:21.569Z,12.10
2022-09-12T00:37:48.918Z,12.27
2022-09-12T00:40:16.104Z,14.00
2022-09-12T00:42:43.152Z,14.03
2022-09-12T00:45:24.141Z,13.30
2022-09-12T00:47:51.111Z,12.40
2022-09-12T00:50:18.675Z,14.30
2022-09-12T00:53:14.359Z,12.90
2022-09-12T00:55:49.772Z,13.67
2022-09-12T00:58:33.231Z,13.73
2022-09-12T01:01:00.391Z,13.70
2022-09-12T01:03:27.544Z,15.23
2022-09-12T01:06:13.901Z,16.50
2022-09-12T01:08:43.863Z,13.73
2022-09-12T01:11:11.883Z,15.00
2022-09-12T01:13:38.906Z,12.90
2022-09-12T01:16:07.349Z,12.00
2022-09-12T01:19:16.948Z,11.00
2022-09-12T01:22:28.926Z,12.07
2022-09-12T01:25:34.104Z,11.90
2022-09-12T01:28:24.003Z,10.70
2022-09-12T01:31:43.064Z,11.13
2022-09-12T01:34:33.866Z,11.40
2022-09-12T01:37:03.439Z,11.90
2022-09-12T01:39:40.587Z,9.97
2022-09-12T01:42:48.877Z,11.33
2022-09-12T01:45:34.827Z,10.60
2022-09-12T01:48:13.124Z,10.77
2022-09-12T01:51:11.775Z,12.47
2022-09-12T01:53:45.122Z,12.60
2022-09-12T01:56:22.017Z,12.27
2022-09-12T01:59:06.677Z,11.50
2022-09-12T02:01:56.867Z,9.97
2022-09-12T02:04:34.136Z,11.77
2022-09-12T02:07:14.930Z,10.27
2022-09-12T02:10:01.488Z,10.37
2022-09-12T02:12:40.634Z,11.50
2022-09-12T02:15:10.243Z,10.50
2022-09-12T02:17:43.053Z,9.73
2022-09-12T02:20:37.504Z,9.23
2022-09-12T02:23:13.891Z,9.07
2022-09-12T02:25:45.243Z,8.80
2022-09-12T02:28:30.241Z,9.83
2022-09-12T02:31:09.419Z,8.63
2022-09-12T02:33:53.121Z,8.23
2022-09-12T02:36:40.873Z,7.87
2022-09-12T02:39:07.845Z,8.70
2022-09-12T02:41:34.805Z,8.80
2022-09-12T02:44:04.027Z,8.83
2022-09-12T02:46:47.682Z,8.83
2022-09-12T02:49:16.105Z,9.03
2022-09-12T02:51:43.458Z,8.43
2022-09-12T02:54:11.750Z,7.90
2022-09-12T02:56:43.583Z,8.37
2022-09-12T02:59:15.955Z,8.20
2022-09-12T03:02:13.590Z,8.60
2022-09-12T03:05:11.042Z,8.70
2022-09-12T03:08:06.337Z,8.50
2022-09-12T03:11:08.952Z,9.90
2022-09-12T03:14:41.802Z,8.30
2022-09-12T03:17:18.458Z,9.10
2022-09-12T03:20:13.911Z,8.33
2022-09-12T03:23:03.711Z,8.57
2022-09-12T03:25:42.108Z,8.03
2022-09-12T03:28:14.650Z,7.67
2022-09-12T03:30:47.823Z,7.90
2022-09-12T03:33:18.282Z,8.43
2022-09-12T03:35:46.639Z,7.97
2022-09-12T03:38:13.834Z,7.53
2022-09-12T03:40:41.544Z,7.60
2022-09-12T03:43:09.268Z,8.10
2022-09-12T03:45:37.699Z,8.30
2022-09-12T03:48:06.169Z,8.00
2022-09-12T03:50:33.848Z,8.47
2022-09-12T03:53:01.463Z,9.70
2022-09-12T03:55:28.424Z,10.27
2022-09-12T03:57:55.911Z,9.83
2022-09-12T04:00:23.208Z,8.30
2022-09-12T04:02:57.135Z,9.00
2022-09-12T04:05:25.869Z,7.97
2022-09-12T04:07:52.801Z,8.43
2022-09-12T04:10:19.817Z,9.10
2022-09-12T04:12:46.947Z,9.50
2022-09-12T04:15:14.544Z,9.83
2022-09-12T04:17:41.417Z,8.70
2022-09-12T04:20:09.195Z,8.27
2022-09-12T04:22:36.188Z,8.50
2022-09-12T04:25:03.456Z,8.57
2022-09-12T04:27:30.951Z,8.20
2022-09-12T04:29:58.463Z,7.77
2022-09-12T04:32:25.505Z,8.40
2022-09-12T04:34:52.642Z,9.40
2022-09-12T04:37:19.648Z,8.67
2022-09-12T04:39:48.489Z,9.77
2022-09-12T04:42:16.447Z,9.70
2022-09-12T04:44:43.847Z,9.30
2022-09-12T04:47:10.993Z,10.50
2022-09-12T04:49:38.149Z,10.53
2022-09-12T04:52:05.346Z,11.93
2022-09-12T04:54:32.995Z,10.80
2022-09-12T04:56:59.958Z,10.90
2022-09-12T04:59:27.673Z,14.07
2022-09-12T05:01:54.693Z,12.63
2022-09-12T05:04:21.683Z,13.27
2022-09-12T05:06:48.680Z,13.03
2022-09-12T05:09:16.513Z,12.60
2022-09-12T05:12:04.268Z,13.40
2022-09-12T05:14:32.875Z,13.27
2022-09-12T05:17:01.557Z,13.13
2022-09-12T05:19:30.476Z,11.53
2022-09-12T05:21:57.649Z,10.27
2022-09-12T05:24:26.222Z,12.23
2022-09-12T05:26:53.378Z,13.87
2022-09-12T05:29:20.375Z,14.20
2022-09-12T05:31:50.148Z,14.60
2022-09-12T05:34:17.117Z,13.20
2022-09-12T05:36:44.141Z,14.10
2022-09-12T05:39:11.086Z,15.67
2022-09-12T05:41:38.291Z,16.17
2022-09-12T05:44:10.600Z,18.03
2022-09-12T05:46:40.882Z,18.23
2022-09-12T05:49:11.749Z,19.20
2022-09-12T05:51:45.310Z,15.33
2022-09-12T05:54:15.080Z,14.47
2022-09-12T05:56:43.965Z,14.70
2022-09-12T05:59:20.600Z,15.03
2022-09-12T06:01:48.573Z,14.10
2022-09-12T06:04:16.052Z,18.53
2022-09-12T06:06:48.809Z,17.70
2022-09-12T06:09:16.936Z,18.37
2022-09-12T06:11:45.804Z,17.20
2022-09-12T06:14:15.147Z,19.20
2022-09-12T06:16:42.661Z,18.53
2022-09-12T06:19:17.044Z,18.00
2022-09-12T06:21:44.977Z,19.90
2022-09-12T06:24:12.156Z,17.87
2022-09-12T06:26:42.360Z,20.33
2022-09-12T06:29:11.666Z,20.27
2022-09-12T06:31:41.384Z,20.60
2022-09-12T06:34:11.510Z,20.17
2022-09-12T06:36:45.095Z,21.57
2022-09-12T06:39:24.431Z,21.40
2022-09-12T06:41:52.485Z,19.70
2022-09-12T06:44:33.029Z,21.00
2022-09-12T06:46:59.961Z,20.77
2022-09-12T06:49:26.865Z,21.20
2022-09-12T06:51:53.775Z,20.00
2022-09-12T06:54:20.652Z,19.47
2022-09-12T06:56:47.631Z,21.03
2022-09-12T06:59:14.603Z,19.43
2022-09-12T07:01:42.076Z,18.80
2022-09-12T07:04:09.317Z,18.73
2022-09-12T07:06:42.297Z,19.10
2022-09-12T07:09:13.548Z,19.80
2022-09-12T07:11:42.174Z,18.83
2022-09-12T07:14:13.827Z,18.93
2022-09-12T07:16:41.924Z,18.20
2022-09-12T07:19:10.187Z,17.10
2022-09-12T07:21:40.051Z,17.97
2022-09-12T07:24:11.733Z,18.07
2022-09-12T07:26:40.469Z,17.53
2022-09-12T07:29:35.332Z,18.33
2022-09-12T07:31:57.640Z,17.13
2022-09-12T07:34:24.513Z,15.50
2022-09-12T07:36:51.471Z,14.70
2022-09-12T07:39:18.379Z,14.97
2022-09-12T07:41:45.332Z,13.80
2022-09-12T07:44:12.272Z,14.07
2022-09-12T07:46:40.117Z,14.13
2022-09-12T07:49:08.483Z,12.20
2022-09-12T07:51:35.891Z,11.93
2022-09-12T07:54:03.771Z,14.07
2022-09-12T07:56:34.611Z,12.00
2022-09-12T07:59:03.967Z,12.63
2022-09-12T08:01:31.032Z,13.03
2022-09-12T08:04:00.625Z,13.43
2022-09-12T08:06:31.157Z,11.40
2022-09-12T08:09:00.548Z,12.40
2022-09-12T08:11:29.589Z,11.33
2022-09-12T08:13:58.043Z,11.13
2022-09-12T08:16:28.569Z,11.00
2022-09-12T08:18:55.892Z,9.70
2022-09-12T08:21:34.232Z,9.70
2022-09-12T08:24:04.720Z,8.67
2022-09-12T08:26:33.765Z,9.13
2022-09-12T08:29:01.643Z,8.60
2022-09-12T08:31:28.943Z,7.30
2022-09-12T08:33:57.654Z,7.80
2022-09-12T08:36:27.692Z,7.77
2022-09-12T08:39:01.332Z,8.60
2022-09-12T08:41:39.804Z,7.77
2022-09-12T08:44:23.000Z,9.00
2022-09-12T08:47:06.974Z,7.80
2022-09-12T08:49:42.203Z,8.90
2022-09-12T08:52:29.510Z,8.20
2022-09-12T08:54:57.096Z,7.93
2022-09-12T08:57:24.301Z,7.97
2022-09-12T08:59:52.968Z,7.57
2022-09-12T09:02:58.907Z,7.93
2022-09-12T09:05:36.471Z,6.33
2022-09-12T09:08:43.029Z,6.60
2022-09-12T09:11:45.842Z,5.77
2022-09-12T09:14:31.203Z,6.80
2022-09-12T09:17:00.224Z,6.40
2022-09-12T09:20:16.226Z,5.70
2022-09-12T09:23:02.435Z,4.90
2022-09-12T09:25:56.720Z,5.83
2022-09-12T09:29:20.544Z,5.23
2022-09-12T09:31:52.494Z,4.97
2022-09-12T09:34:29.081Z,6.20
2022-09-12T09:37:19.635Z,5.53
2022-09-12T09:40:24.886Z,5.30
2022-09-12T09:43:24.661Z,4.37
2022-09-12T09:45:53.112Z,4.73
2022-09-12T09:48:28.262Z,4.20
2022-09-12T09:51:00.320Z,5.60
2022-09-12T09:54:19.906Z,5.70
2022-09-12T09:56:50.410Z,4.40
2022-09-12T09:59:30.248Z,5.20
2022-09-12T10:02:03.638Z,6.70
2022-09-12T10:04:38.099Z,5.33
2022-09-12T10:07:19.765Z,6.43
2022-09-12T10:10:07.486Z,7.07
2022-09-12T10:12:34.476Z,7.73
2022-09-12T10:15:23.240Z,6.13
2022-09-12T10:17:51.322Z,6.07
2022-09-12T10:20:46.273Z,6.80
2022-09-12T10:23:41.020Z,6.10
2022-09-12T10:26:15.220Z,6.40
2022-09-12T10:28:55.049Z,6.50
2022-09-12T10:31:39.012Z,6.70
2022-09-12T10:34:06.088Z,5.83
2022-09-12T10:36:40.776Z,7.20
2022-09-12T10:39:18.674Z,5.90
2022-09-12T10:41:46.168Z,6.07
2022-09-12T10:44:26.235Z,5.27
2022-09-12T10:46:54.399Z,6.73
2022-09-12T10:49:38.065Z,7.80
2022-09-12T10:52:25.049Z,6.60
2022-09-12T10:54:52.475Z,6.10
2022-09-12T10:57:49.047Z,7.13
2022-09-12T11:00:20.083Z,6.50
2022-09-12T11:03:14.648Z,5.47
2022-09-12T11:05:59.910Z,5.50
2022-09-12T11:08:53.946Z,6.10
2022-09-12T11:11:39.204Z,4.87
2022-09-12T11:14:27.616Z,6.67
2022-09-12T11:17:15.796Z,5.63
2022-09-12T11:19:57.737Z,5.77
2022-09-12T11:23:14.898Z,4.87
2022-09-12T11:25:57.288Z,5.87
2022-09-12T11:28:37.237Z,4.63
2022-09-12T11:31:25.134Z,4.87
2022-09-12T11:33:56.550Z,5.23
2022-09-12T11:37:07.435Z,5.70
2022-09-12T11:39:41.023Z,5.00
2022-09-12T11:42:18.131Z,4.90
2022-09-12T11:45:05.492Z,5.30
2022-09-12T11:47:35.333Z,6.23
2022-09-12T11:50:23.469Z,5.13
2022-09-12T11:52:53.217Z,4.80
2022-09-12T11:55:26.075Z,4.73
2022-09-12T11:57:58.480Z,5.20
2022-09-12T12:00:48.172Z,4.70
2022-09-12T12:03:28.422Z,6.53
2022-09-12T12:06:12.574Z,6.17
2022-09-12T12:08:43.349Z,4.43
2022-09-12T12:11:13.312Z,5.00
2022-09-12T12:13:51.451Z,5.30
2022-09-12T12:16:28.309Z,5.03
2022-09-12T12:19:09.991Z,4.30
2022-09-12T12:21:43.958Z,4.67
2022-09-12T12:24:17.992Z,4.87
2022-09-12T12:26:58.156Z,4.33
2022-09-12T12:29:46.189Z,4.20
2022-09-12T12:32:16.430Z,3.87
2022-09-12T12:34:45.658Z,5.27
2022-09-12T12:37:21.592Z,4.50
2022-09-12T12:40:01.239Z,4.47
2022-09-12T12:42:34.301Z,4.90
2022-09-12T12:45:29.875Z,4.30
2022-09-12T12:48:08.326Z,4.60
2022-09-12T12:50:35.741Z,4.10
2022-09-12T12:53:27.842Z,3.93
2022-09-12T12:55:56.570Z,3.77
2022-09-12T12:58:37.556Z,4.53
2022-09-12T13:01:19.381Z,4.10
2022-09-12T13:04:03.696Z,4.10
2022-09-12T13:06:40.099Z,4.00
2022-09-12T13:09:19.876Z,4.30
2022-09-12T13:11:47.136Z,4.10
2022-09-12T13:14:55.893Z,4.90
2022-09-12T13:17:28.735Z,4.27
2022-09-12T13:20:27.859Z,5.33
2022-09-12T13:22:56.116Z,5.80
2022-09-12T13:25:35.660Z,4.73
2022-09-12T13:28:10.648Z,4.23
2022-09-12T13:30:42.629Z,4.27
2022-09-12T13:33:28.501Z,4.43
2022-09-12T13:36:15.373Z,4.73
2022-09-12T13:38:51.032Z,4.73
2022-09-12T13:41:39.557Z,3.90
2022-09-12T13:44:13.224Z,4.70
2022-09-12T13:46:40.713Z,5.10
2022-09-12T13:49:23.902Z,4.90
2022-09-12T13:52:05.923Z,5.30
2022-09-12T13:54:37.871Z,4.63
2022-09-12T13:57:05.872Z,4.43
2022-09-12T13:59:40.958Z,4.40
2022-09-12T14:02:22.846Z,5.43
2022-09-12T14:05:08.976Z,4.53
2022-09-12T14:08:04.627Z,4.60
2022-09-12T14:10:40.712Z,5.00
2022-09-12T14:13:21.781Z,4.87
2022-09-12T14:15:52.927Z,5.20
2022-09-12T14:18:29.749Z,5.20
2022-09-12T14:21:00.791Z,5.13
2022-09-12T14:23:33.202Z,4.40
2022-09-12T14:26:08.205Z,4.57
2022-09-12T14:28:36.173Z,5.60
2022-09-12T14:31:07.462Z,5.00
2022-09-12T14:33:48.665Z,4.50
2022-09-12T14:36:27.625Z,4.13
2022-09-12T14:38:59.847Z,4.23
2022-09-12T14:41:32.652Z,4.30
2022-09-12T14:44:05.028Z,4.53
2022-09-12T14:46:41.176Z,4.27
2022-09-12T14:49:15.848Z,3.83
2022-09-12T14:51:51.810Z,3.93
2022-09-12T14:54:28.523Z,3.83
2022-09-12T14:57:39.419Z,4.20
2022-09-12T15:00:12.251Z,3.73
2022-09-12T15:02:41.587Z,3.63
2022-09-12T15:05:08.537Z,4.30
2022-09-12T15:07:43.612Z,4.17
2022-09-12T15:10:34.694Z,4.30
2022-09-12T15:13:14.291Z,4.00
2022-09-12T15:15:45.782Z,3.90
2022-09-12T15:18:13.821Z,4.57
2022-09-12T15:20:43.905Z,4.33
2022-09-12T15:23:19.365Z,4.47
2022-09-12T15:25:47.005Z,4.20
2022-09-12T15:28:20.043Z,3.60
2022-09-12T15:30:50.590Z,4.80
2022-09-12T15:33:19.643Z,4.00
2022-09-12T15:35:46.583Z,4.10
2022-09-12T15:38:13.776Z,4.20
2022-09-12T15:40:41.061Z,4.43
2022-09-12T15:43:08.044Z,4.03
2022-09-12T15:45:35.672Z,4.63
2022-09-12T15:48:03.361Z,4.63
2022-09-12T15:50:31.602Z,4.57
2022-09-12T15:52:58.974Z,3.90
2022-09-12T15:55:30.122Z,4.43
2022-09-12T15:57:57.004Z,5.03
2022-09-12T16:00:24.392Z,4.13
2022-09-12T16:02:53.610Z,4.47
2022-09-12T16:05:25.232Z,5.30
2022-09-12T16:07:55.064Z,4.50
2022-09-12T16:10:26.944Z,4.80
2022-09-12T16:12:54.024Z,4.23
2022-09-12T16:15:24.522Z,4.53
2022-09-12T16:17:51.763Z,4.53
2022-09-12T16:20:19.751Z,5.20
2022-09-12T16:22:46.965Z,4.10
2022-09-12T16:25:14.382Z,4.57
2022-09-12T16:27:41.758Z,4.80
2022-09-12T16:30:09.626Z,4.50
2022-09-12T16:32:37.019Z,5.10
2022-09-12T16:35:05.087Z,4.20
2022-09-12T16:37:34.573Z,4.70
2022-09-12T16:40:03.404Z,4.00
2022-09-12T16:42:31.760Z,4.33
2022-09-12T16:44:58.878Z,4.77
2022-09-12T16:47:26.257Z,6.30
2022-09-12T16:49:53.362Z,6.00
2022-09-12T16:52:20.763Z,4.90
2022-09-12T16:54:48.041Z,4.47
2022-09-12T16:57:15.240Z,4.33
2022-09-12T16:59:42.577Z,4.60
2022-09-12T17:02:14.034Z,5.00
2022-09-12T17:04:42.089Z,5.00
2022-09-12T17:07:09.151Z,4.57
2022-09-12T17:09:36.477Z,6.27
2022-09-12T17:12:03.713Z,8.70
2022-09-12T17:14:30.704Z,8.00
2022-09-12T17:16:57.946Z,4.50
2022-09-12T17:19:29.626Z,4.57
2022-09-12T17:21:57.875Z,4.70
2022-09-12T17:24:25.369Z,5.17
2022-09-12T17:26:53.508Z,4.70
2022-09-12T17:29:20.653Z,4.47
2022-09-12T17:31:50.455Z,5.30
2022-09-12T17:34:17.761Z,5.00
2022-09-12T17:36:45.867Z,7.00
2022-09-12T17:39:14.297Z,5.40
2022-09-12T17:41:46.137Z,4.23
2022-09-12T17:44:15.092Z,5.10
2022-09-12T17:46:43.501Z,6.80
2022-09-12T17:49:16.849Z,7.00
2022-09-12T17:51:44.979Z,8.97
2022-09-12T17:54:17.559Z,5.10
2022-09-12T17:56:48.967Z,4.80
2022-09-12T17:59:20.159Z,5.20
2022-09-12T18:02:06.287Z,4.67
2022-09-12T18:04:34.360Z,5.50
2022-09-12T18:07:01.498Z,5.53
2022-09-12T18:09:28.795Z,5.37
2022-09-12T18:11:55.809Z,5.40
2022-09-12T18:14:23.709Z,5.00
2022-09-12T18:16:50.888Z,5.33
2022-09-12T18:19:18.463Z,4.83
2022-09-12T18:21:45.679Z,4.90
2022-09-12T18:24:12.796Z,5.20
2022-09-12T18:26:40.115Z,5.03
2022-09-12T18:29:07.727Z,4.70
2022-09-12T18:31:34.667Z,4.80
2022-09-12T18:34:02.548Z,6.10
2022-09-12T18:36:30.645Z,6.13
2022-09-12T18:38:59.120Z,5.53
2022-09-12T18:41:28.752Z,5.60
2022-09-12T18:43:57.586Z,5.57
2022-09-12T18:46:25.686Z,5.67
2022-09-12T18:48:55.453Z,6.00
2022-09-12T18:51:31.627Z,20.00
2022-09-12T18:54:08.720Z,6.70
2022-09-12T18:56:38.298Z,5.83
2022-09-12T18:59:07.576Z,5.60
2022-09-12T19:01:37.280Z,5.83
2022-09-12T19:04:07.573Z,5.37
2022-09-12T19:06:41.450Z,5.37
2022-09-12T19:09:10.102Z,5.63
2022-09-12T19:11:39.879Z,5.70
2022-09-12T19:14:07.730Z,6.37
2022-09-12T19:16:35.083Z,5.47
2022-09-12T19:19:02.968Z,6.40
2022-09-12T19:21:31.696Z,5.60
2022-09-12T19:24:09.950Z,5.73
2022-09-12T19:26:38.917Z,5.40
2022-09-12T19:29:06.338Z,5.50
2022-09-12T19:31:33.393Z,5.87
2022-09-12T19:34:07.825Z,5.23
2022-09-12T19:36:50.681Z,5.57
2022-09-12T19:39:19.670Z,5.73
2022-09-12T19:41:47.424Z,5.70
2022-09-12T19:44:14.526Z,6.10
2022-09-12T19:46:41.964Z,5.57
2022-09-12T19:49:11.767Z,5.43
2022-09-12T19:51:38.937Z,5.20
2022-09-12T19:54:06.201Z,5.60
2022-09-12T19:56:33.090Z,6.50
2022-09-12T19:59:00.159Z,5.43
2022-09-12T20:01:28.605Z,5.07
2022-09-12T20:03:57.653Z,5.40
2022-09-12T20:06:25.936Z,5.60
2022-09-12T20:08:53.085Z,5.53
2022-09-12T20:11:23.363Z,5.50
2022-09-12T20:13:50.595Z,5.53
2022-09-12T20:16:22.813Z,5.20
2022-09-12T20:18:55.890Z,5.07
2022-09-12T20:21:30.953Z,5.10
2022-09-12T20:24:11.885Z,29.87
2022-09-12T20:26:39.838Z,27.70
2022-09-12T20:29:07.603Z,5.77
2022-09-12T20:31:36.973Z,5.07
2022-09-12T20:34:05.227Z,4.90
2022-09-12T20:36:32.486Z,4.90
2022-09-12T20:39:01.333Z,4.50
2022-09-12T20:41:32.234Z,4.67
2022-09-12T20:43:59.445Z,4.60
2022-09-12T20:46:28.388Z,4.63
2022-09-12T20:48:55.774Z,5.00
2022-09-12T20:51:24.485Z,5.17
2022-09-12T20:53:59.599Z,4.60
2022-09-12T20:56:28.337Z,5.10
2022-09-12T20:58:56.391Z,5.37
2022-09-12T21:01:24.838Z,5.10
2022-09-12T21:03:52.312Z,5.30
2022-09-12T21:06:20.212Z,5.10
2022-09-12T21:08:48.656Z,5.43
2022-09-12T21:11:16.552Z,5.47
2022-09-12T21:13:43.483Z,4.90
2022-09-12T21:16:17.689Z,5.17
2022-09-12T21:18:45.210Z,5.53
2022-09-12T21:21:14.331Z,5.60
2022-09-12T21:23:42.171Z,5.40
2022-09-12T21:26:09.214Z,5.00
2022-09-12T21:28:36.561Z,5.00
2022-09-12T21:31:03.751Z,5.90
2022-09-12T21:33:31.021Z,5.43
2022-09-12T21:36:03.641Z,5.70
2022-09-12T21:38:30.954Z,5.33
2022-09-12T21:41:13.145Z,5.00
2022-09-12T21:43:40.439Z,4.50
2022-09-12T21:46:08.362Z,5.30
2022-09-12T21:48:35.929Z,5.50
2022-09-12T21:51:04.016Z,5.10
2022-09-12T21:53:31.861Z,4.80
2022-09-12T21:56:07.445Z,5.13
2022-09-12T21:58:35.584Z,5.27
2022-09-12T22:01:03.510Z,5.90
2022-09-12T22:03:30.870Z,5.30
2022-09-12T22:06:03.967Z,6.00
2022-09-12T22:08:33.611Z,4.80
2022-09-12T22:11:03.719Z,4.30
2022-09-12T22:13:32.032Z,5.70
2022-09-12T22:16:00.399Z,5.40
2022-09-12T22:18:27.413Z,5.43
2022-09-12T22:21:07.474Z,5.20
2022-09-12T22:23:53.589Z,5.00
2022-09-12T22:26:20.603Z,5.70
2022-09-12T22:28:47.686Z,5.23
2022-09-12T22:31:15.429Z,4.97
2022-09-12T22:33:43.133Z,5.20
2022-09-12T22:36:10.527Z,5.43
2022-09-12T22:38:37.695Z,5.00
2022-09-12T22:41:07.487Z,5.47
2022-09-12T22:43:35.294Z,5.03
2022-09-12T22:46:06.477Z,5.97
2022-09-12T22:48:33.993Z,4.90
2022-09-12T22:51:01.149Z,5.03
2022-09-12T22:53:28.666Z,5.87
2022-09-12T22:55:55.771Z,6.10
2022-09-12T22:58:22.807Z,5.40
2022-09-12T23:00:50.833Z,5.03
2022-09-12T23:03:19.127Z,5.00
2022-09-12T23:05:49.872Z,5.73
2022-09-12T23:08:19.357Z,5.97
2022-09-12T23:10:46.753Z,5.10
2022-09-12T23:13:14.210Z,5.67
2022-09-12T23:15:41.362Z,5.80
2022-09-12T23:18:08.493Z,5.90
2022-09-12T23:20:35.688Z,5.77
2022-09-12T23:23:03.006Z,5.60
2022-09-12T23:25:30.897Z,5.70
2022-09-12T23:27:58.346Z,5.60
2022-09-12T23:30:25.301Z,6.10
2022-09-12T23:32:52.295Z,5.53
2022-09-12T23:35:19.679Z,6.60
2022-09-12T23:37:47.456Z,5.93
2022-09-12T23:40:14.656Z,5.80
2022-09-12T23:42:41.761Z,5.77
2022-09-12T23:45:10.282Z,5.70
2022-09-12T23:47:37.386Z,5.67
2022-09-12T23:50:04.855Z,5.70
2022-09-12T23:52:31.852Z,6.30
2022-09-12T23:54:58.725Z,5.63
2022-09-12T23:57:25.696Z,6.17
2022-09-12T23:59:52.643Z,5.97
